Search for airport 
image banner adimage banner adimage banner ad
image banner ad

5PA1 - Broadt Personal Use

Located in Mainville, United States

ICAO - 5PA1, IATA -

Data provided by Airmate  

General information

Coordinates: N40°59'50" W76°23'2"
Elevation is 920 feet MSL.
Magnetic variation is -11° East
View others Airports in Pennsylvania

Operational data

Special qualification required
Current time UTC:
Current local time:
Weather at : KHZL - Hazleton Rgnl ( 33 km )
METAR: KHZL 152115Z AUTO 32009KT 10SM SCT039 BKN047 OVC080 20/11 A2986 RMK AO2
View NOTAMs / SUP AIP / TFR affecting this airport [VIEW]
Communications frequencies: [VIEW]

Runways:

RWY identifierQFULength (ft)Width (ft)SurfaceLDA (ft)
061600100GRASS
241600100GRASS

Airport contact information

Address: Mainville United States

Satellite view of 5PA1